OSLO / FORNEBU current weather conditions

sailwx.info

Last reported at 2014-Nov-24 02:27 UTC.
Time now 2014-Nov-26 04:05 UTC

Location: N 59°54' E 010°38'.
View on Google Maps.

See reports from other nearby stations

  
Tides and Currents Weather Stations Pressure Air Temp Water Temp Dewpoint Dewpoint Depression Visibility Wind Speed Wind Dir Waves Ship Positions
date/time (UTC)wind fromknots sea level pressurealtimeterstation pressurevisibilityair tempwater tempwave heightnotes
2014-Nov-26 02:20 170 20 5.4 9.0
2014-Nov-26 01:50 170 19 5.4 9.0
2014-Nov-26 01:20 170 18 5.4 9.0
2014-Nov-26 00:50 170 18 5.4 9.0
2014-Nov-26 00:20 160 17 5.4 9.0
2014-Nov-25 23:50 170 15 5.4 9.0
2014-Nov-25 23:20 170 14 5.4 9.0
2014-Nov-25 22:50 170 12 5.4 9.0
2014-Nov-25 22:20 170 10 5.4 9.0
2014-Nov-25 21:50 170 14 5.4 9.0
2014-Nov-25 21:20 180 12 5.4 9.0
2014-Nov-25 20:50 180 12 5.4 9.0
2014-Nov-25 20:20 180 12 5.4 9.0
2014-Nov-25 19:50 180 12 5.4 9.0
2014-Nov-25 19:20 210 10 5.4 9.0
2014-Nov-25 18:50 210 9 5.4 9.0
2014-Nov-25 18:20 220 9 5.4 9.0
2014-Nov-25 17:50 230 9 5.4 9.0
2014-Nov-25 17:20 230 10 5.4 9.0
2014-Nov-25 16:50 230 11 5.4 9.0
2014-Nov-25 16:20 230 11 5.4 9.0
2014-Nov-25 15:50 240 11 5.4 9.0
2014-Nov-25 15:20 250 11 5.4 9.0
2014-Nov-25 14:50 260 14 5.4 9.0
2014-Nov-25 14:20 250 10 5.4 9.0
2014-Nov-25 13:50 250 10 5.4 9.0
2014-Nov-25 13:20 250 12 5.4 9.0
2014-Nov-25 12:50 240 12 5.4 9.0
2014-Nov-25 12:20 260 11 5.4 9.0
2014-Nov-25 11:50 260 13 5.410.0
2014-Nov-25 11:20 260 13 5.4 9.0
2014-Nov-25 10:50 270 16 5.4 9.0
2014-Nov-25 10:20 270 13 5.4 9.0
2014-Nov-25 09:50 280 13 5.4 9.0
2014-Nov-25 09:20 280 15 5.4 9.0
2014-Nov-25 08:50 280 14 5.4 9.0
2014-Nov-25 08:20 280 17 5.4 9.0
2014-Nov-25 07:50 280 18 5.4 9.0
2014-Nov-25 07:20 280 16 5.4 9.0
2014-Nov-25 06:50 290 15 5.4 9.0
2014-Nov-25 06:20 280 19 5.4 9.0
2014-Nov-25 05:50 290 20 5.4 9.0
2014-Nov-25 05:20 290 17 5.4 9.0
2014-Nov-25 04:50 290 21 5.4 9.0
2014-Nov-25 04:20 270 19 5.4 8.0 Light rain showers.
2014-Nov-25 03:50 260 14 5.4 9.0
2014-Nov-25 03:20 280 24 2.1 8.0 Rain. Mist.
2014-Nov-25 02:50 260 20 5.4 9.0
2014-Nov-25 02:20 260 23 5.4 9.0 Light rain showers.
2014-Nov-25 01:50 260 25 5.4 9.0
2014-Nov-25 01:20 260 25 5.4 9.0
2014-Nov-25 00:50 260 20 5.4 9.0
2014-Nov-25 00:20 230 30 1.6 9.0 Light rain. Mist.
2014-Nov-24 23:50 220 31 1.8 9.0
2014-Nov-24 23:20 220 25 4.910.0 Drizzle.
2014-Nov-24 22:50 210 26 5.410.0
2014-Nov-24 22:20 210 27 5.4 9.0
2014-Nov-24 21:50 210 26 5.4 9.0
2014-Nov-24 21:20 210 23 5.4 9.0
2014-Nov-24 20:50 210 15 5.4 9.0
2014-Nov-24 20:20 220 14 5.4 9.0
2014-Nov-24 19:50 220 14 5.4 9.0
2014-Nov-24 19:20 230 10 5.4 9.0
2014-Nov-24 18:50 250 13 5.4 9.0
2014-Nov-24 18:20 270 17 5.4 9.0
2014-Nov-24 17:50 270 14 5.4 9.0
2014-Nov-24 17:20 260 14 5.4 9.0
2014-Nov-24 16:50 270 16 5.4 9.0
2014-Nov-24 16:20 260 17 5.4 9.0
2014-Nov-24 15:50 270 12 5.4 9.0
2014-Nov-24 15:20 280 13 5.4 9.0
2014-Nov-24 14:50 280 13 5.4 9.0
2014-Nov-24 14:20 290 17 5.4 9.0
2014-Nov-24 13:50 290 15 5.4 9.0
2014-Nov-24 13:20 290 18 5.4 9.0
2014-Nov-24 12:50 290 19 5.4 9.0
2014-Nov-24 12:20 290 18 5.4 9.0
2014-Nov-24 11:50 290 18 5.4 9.0
2014-Nov-24 11:20 300 18 5.4 9.0
2014-Nov-24 10:50 300 17 5.4 9.0
2014-Nov-24 10:20 310 17 5.4 9.0
2014-Nov-24 09:50 310 19 5.4 9.0
2014-Nov-24 09:20 310 18 5.4 9.0
2014-Nov-24 08:50 310 19 5.4 8.0
2014-Nov-24 08:20 310 19 5.4 9.0
2014-Nov-24 07:50 310 18 5.4 8.0
2014-Nov-24 07:20 310 17 5.4 8.0
2014-Nov-24 06:50 320 17 5.4 8.0
2014-Nov-24 06:20 320 16 5.4 8.0
2014-Nov-24 05:50 320 13 5.4 8.0
2014-Nov-24 05:20 320 12 5.4 8.0
2014-Nov-24 04:50 320 12 5.4 8.0 Light rain showers.
2014-Nov-24 04:20 320 12 5.4 8.0